Terminal Aerodrome Forecast
Issued by NWS

Current Version | Previous Version | Text Only | Print | Product List | Glossary On
Versions: 1 2 3 4 5 6 7 8 9 10 11 12 13 14 15 16 17
681
FTUS43 KMQT 241120
TAFCMX
TAF
KCMX 241120Z 2412/2512 19004KT 6SM BR SCT200
     FM241700 20008KT P6SM FEW250
     FM250700 21009KT P6SM FEW200 WS010/22040KT
     FM251100 22007KT P6SM FEW200=

USA.gov is the U.S. government's official web portal to all federal, state and local government web resources and services.